createdAt,value
2022-12-31T00:02:15.329Z,85.14
2022-12-31T00:07:18.665Z,85.26
2022-12-31T00:12:21.767Z,85.29
2022-12-31T00:17:24.982Z,85.24
2022-12-31T00:22:29.416Z,85.14
2022-12-31T00:27:33.855Z,85.17
2022-12-31T00:32:37.263Z,85.20
2022-12-31T00:37:40.342Z,85.27
2022-12-31T00:42:43.576Z,85.28
2022-12-31T00:47:47.410Z,85.18
2022-12-31T00:52:50.605Z,84.48
2022-12-31T00:57:53.810Z,84.11
2022-12-31T01:02:57.246Z,84.15
2022-12-31T01:08:01.358Z,83.71
2022-12-31T01:13:04.773Z,83.84
2022-12-31T01:18:09.100Z,83.74
2022-12-31T01:23:12.309Z,83.45
2022-12-31T01:28:15.821Z,83.46
2022-12-31T01:33:19.440Z,83.78
2022-12-31T01:38:22.553Z,83.70
2022-12-31T01:43:43.267Z,83.14
2022-12-31T01:48:51.539Z,83.02
2022-12-31T01:53:55.313Z,82.93
2022-12-31T01:58:59.743Z,83.28
2022-12-31T02:04:09.204Z,83.50
2022-12-31T02:09:13.112Z,83.30
2022-12-31T02:14:20.680Z,83.27
2022-12-31T02:19:55.284Z,83.00
2022-12-31T02:25:32.693Z,82.90
2022-12-31T02:30:37.691Z,83.06
2022-12-31T02:35:47.303Z,82.70
2022-12-31T02:40:52.862Z,82.68
2022-12-31T02:46:13.425Z,82.62
2022-12-31T02:51:41.979Z,82.51
2022-12-31T02:57:13.260Z,82.40
2022-12-31T03:02:20.271Z,82.44
2022-12-31T03:07:27.269Z,82.43
2022-12-31T03:12:48.534Z,82.44
2022-12-31T03:18:13.600Z,82.64
2022-12-31T03:23:21.390Z,82.72
2022-12-31T03:28:27.933Z,82.61
2022-12-31T03:33:34.423Z,82.51
2022-12-31T03:38:37.519Z,82.86
2022-12-31T03:43:40.794Z,82.97
2022-12-31T03:48:43.795Z,83.06
2022-12-31T03:53:47.008Z,83.06
2022-12-31T03:58:50.523Z,83.04
2022-12-31T04:03:53.628Z,82.91
2022-12-31T04:08:56.836Z,83.00
2022-12-31T04:13:59.940Z,83.00
2022-12-31T04:19:03.260Z,83.06
2022-12-31T04:24:07.234Z,83.21
2022-12-31T04:29:11.309Z,83.25
2022-12-31T04:34:15.031Z,83.41
2022-12-31T04:39:18.442Z,83.76
2022-12-31T04:44:22.159Z,84.20
2022-12-31T04:49:25.467Z,84.61
2022-12-31T04:54:28.489Z,84.97
2022-12-31T04:59:31.677Z,85.22
2022-12-31T05:04:34.991Z,85.66
2022-12-31T05:09:38.103Z,86.39
2022-12-31T05:14:41.405Z,86.66
2022-12-31T05:19:44.610Z,86.96
2022-12-31T05:24:47.616Z,87.29
2022-12-31T05:29:51.127Z,88.04
2022-12-31T05:34:55.070Z,88.06
2022-12-31T05:39:58.680Z,88.41
2022-12-31T05:45:05.366Z,88.88
2022-12-31T05:50:11.502Z,88.91
2022-12-31T05:55:14.648Z,89.14
2022-12-31T06:00:17.855Z,89.61
2022-12-31T06:05:25.891Z,89.41
2022-12-31T06:10:29.597Z,89.57
2022-12-31T06:15:33.691Z,89.55
2022-12-31T06:20:40.210Z,89.72
2022-12-31T06:25:46.287Z,89.77
2022-12-31T06:30:49.840Z,89.73
2022-12-31T06:35:57.836Z,89.87
2022-12-31T06:41:05.337Z,89.99
2022-12-31T06:46:11.618Z,90.03
2022-12-31T06:51:19.629Z,90.13
2022-12-31T06:56:33.982Z,90.01
2022-12-31T07:01:59.087Z,89.98
2022-12-31T07:07:32.944Z,90.01
2022-12-31T07:13:00.938Z,90.10
2022-12-31T07:18:12.757Z,90.18
2022-12-31T07:23:29.174Z,90.13
2022-12-31T07:29:01.044Z,90.10
2022-12-31T07:34:36.618Z,90.11
2022-12-31T07:39:52.003Z,90.11
2022-12-31T07:45:20.139Z,90.10
2022-12-31T07:50:25.222Z,90.05
2022-12-31T07:55:35.127Z,90.01
2022-12-31T08:00:41.458Z,89.95
2022-12-31T08:06:20.593Z,89.94
2022-12-31T08:11:37.584Z,89.87
2022-12-31T08:16:41.632Z,89.80
2022-12-31T08:21:50.959Z,89.73
2022-12-31T08:27:12.700Z,89.83
2022-12-31T08:32:34.235Z,89.73
2022-12-31T08:37:44.493Z,89.45
2022-12-31T08:43:03.176Z,89.24
2022-12-31T08:48:23.945Z,88.97
2022-12-31T08:53:30.994Z,88.88
2022-12-31T08:59:05.638Z,88.93
2022-12-31T09:04:41.821Z,88.92
2022-12-31T09:10:04.689Z,88.90
2022-12-31T09:15:34.053Z,88.82
2022-12-31T09:20:44.237Z,88.85
2022-12-31T09:26:15.859Z,88.92
2022-12-31T09:31:30.028Z,88.88
2022-12-31T09:36:44.215Z,88.71
2022-12-31T09:41:56.415Z,88.49
2022-12-31T09:47:17.647Z,88.15
2022-12-31T09:52:41.743Z,88.15
2022-12-31T09:57:56.919Z,88.18
2022-12-31T10:03:03.100Z,88.30
2022-12-31T10:08:21.876Z,88.35
2022-12-31T10:13:34.397Z,88.44
2022-12-31T10:18:37.509Z,88.53
2022-12-31T10:24:15.937Z,88.63
2022-12-31T10:29:22.114Z,88.80
2022-12-31T10:34:47.749Z,89.01
2022-12-31T10:40:09.296Z,89.30
2022-12-31T10:45:15.831Z,89.38
2022-12-31T10:50:28.397Z,89.24
2022-12-31T10:56:25.720Z,89.17
2022-12-31T11:01:33.324Z,89.30
2022-12-31T11:06:58.112Z,89.46
2022-12-31T11:12:35.823Z,89.67
2022-12-31T11:17:54.182Z,89.76
2022-12-31T11:23:03.028Z,89.98
2022-12-31T11:28:30.808Z,90.17
2022-12-31T11:34:02.689Z,90.25
2022-12-31T11:39:30.794Z,90.48
2022-12-31T11:44:46.584Z,90.53
2022-12-31T11:50:12.110Z,90.79
2022-12-31T11:55:41.635Z,90.81
2022-12-31T12:00:57.161Z,90.89
2022-12-31T12:06:01.781Z,91.42
2022-12-31T12:11:19.181Z,91.40
2022-12-31T12:16:24.035Z,91.40
2022-12-31T12:21:28.283Z,91.52
2022-12-31T12:26:37.701Z,91.38
2022-12-31T12:31:41.978Z,91.39
2022-12-31T12:36:48.629Z,91.77
2022-12-31T12:42:08.674Z,92.31
2022-12-31T12:47:17.571Z,92.04
2022-12-31T12:52:42.959Z,91.94
2022-12-31T12:58:18.558Z,92.23
2022-12-31T13:04:14.646Z,92.03
2022-12-31T13:09:23.086Z,92.11
2022-12-31T13:14:45.140Z,92.26
2022-12-31T13:19:55.111Z,92.34
2022-12-31T13:25:16.641Z,92.11
2022-12-31T13:30:23.850Z,92.00
2022-12-31T13:35:33.418Z,92.03
2022-12-31T13:41:02.818Z,92.10
2022-12-31T13:46:24.796Z,92.14
2022-12-31T13:51:42.227Z,92.03
2022-12-31T13:56:46.747Z,91.91
2022-12-31T14:01:58.766Z,91.93
2022-12-31T14:07:11.390Z,91.87
2022-12-31T14:12:57.194Z,91.91
2022-12-31T14:18:27.846Z,91.82
2022-12-31T14:24:26.861Z,91.73
2022-12-31T14:29:43.794Z,91.84
2022-12-31T14:35:15.308Z,91.82
2022-12-31T14:40:47.453Z,91.72
2022-12-31T14:46:30.410Z,91.68
2022-12-31T14:51:38.521Z,91.72
2022-12-31T14:56:45.816Z,91.71
2022-12-31T15:01:49.552Z,91.68
2022-12-31T15:07:17.729Z,91.64
2022-12-31T15:12:26.894Z,91.52
2022-12-31T15:18:02.857Z,91.41
2022-12-31T15:23:21.325Z,91.32
2022-12-31T15:28:35.904Z,91.18
2022-12-31T15:33:41.918Z,91.04
2022-12-31T15:38:49.998Z,90.95
2022-12-31T15:44:14.414Z,90.78
2022-12-31T15:49:20.621Z,90.58
2022-12-31T15:54:30.719Z,90.51
2022-12-31T15:59:34.769Z,90.35
2022-12-31T16:04:44.513Z,90.32
2022-12-31T16:09:58.052Z,90.15
2022-12-31T16:15:02.728Z,90.04
2022-12-31T16:20:27.252Z,90.03
2022-12-31T16:25:33.826Z,89.98
2022-12-31T16:30:38.053Z,89.79
2022-12-31T16:35:41.674Z,89.80
2022-12-31T16:41:15.813Z,89.76
2022-12-31T16:46:32.259Z,89.66
2022-12-31T16:51:38.296Z,89.67
2022-12-31T16:56:43.249Z,89.67
2022-12-31T17:01:47.221Z,89.59
2022-12-31T17:06:51.298Z,89.59
2022-12-31T17:11:57.110Z,89.59
2022-12-31T17:17:04.894Z,89.69
2022-12-31T17:22:31.656Z,89.73
2022-12-31T17:27:37.935Z,89.82
2022-12-31T17:32:43.184Z,89.91
2022-12-31T17:37:47.412Z,89.91
2022-12-31T17:42:50.618Z,89.88
2022-12-31T17:47:55.986Z,89.86
2022-12-31T17:53:10.450Z,90.05
2022-12-31T17:58:18.276Z,90.29
2022-12-31T18:03:22.089Z,90.63
2022-12-31T18:08:26.222Z,90.89
2022-12-31T18:13:30.657Z,90.96
2022-12-31T18:18:36.113Z,91.15
2022-12-31T18:23:46.618Z,91.22
2022-12-31T18:28:50.829Z,91.30
2022-12-31T18:33:56.853Z,91.35
2022-12-31T18:39:00.212Z,91.48
2022-12-31T18:44:03.632Z,91.46
2022-12-31T18:49:06.730Z,91.49
2022-12-31T18:54:12.001Z,91.54
2022-12-31T18:59:15.364Z,91.54
2022-12-31T19:04:27.038Z,91.32
2022-12-31T19:09:49.143Z,91.40
2022-12-31T19:14:56.162Z,91.48
2022-12-31T19:20:05.727Z,91.68
2022-12-31T19:25:18.449Z,91.78
2022-12-31T19:30:27.697Z,92.01
2022-12-31T19:35:31.004Z,92.19
2022-12-31T19:40:34.251Z,92.15
2022-12-31T19:45:37.586Z,92.06
2022-12-31T19:50:43.447Z,92.22
2022-12-31T19:55:46.806Z,92.22
2022-12-31T20:00:56.881Z,91.95
2022-12-31T20:06:08.274Z,91.88
2022-12-31T20:11:14.888Z,91.82
2022-12-31T20:16:21.154Z,91.81
2022-12-31T20:21:27.048Z,91.78
2022-12-31T20:26:30.736Z,91.71
2022-12-31T20:31:34.352Z,91.62
2022-12-31T20:36:39.323Z,91.51
2022-12-31T20:41:42.613Z,91.43
2022-12-31T20:46:46.073Z,91.39
2022-12-31T20:51:52.181Z,91.33
2022-12-31T20:56:55.819Z,91.27
2022-12-31T21:07:22.593Z,91.18
2022-12-31T21:12:44.614Z,91.04
2022-12-31T21:17:48.603Z,90.78
2022-12-31T21:22:52.009Z,90.67
2022-12-31T21:27:55.213Z,90.64
2022-12-31T21:32:58.528Z,90.60
2022-12-31T21:38:03.755Z,90.54
2022-12-31T21:43:07.101Z,90.57
2022-12-31T21:48:22.100Z,90.50
2022-12-31T21:53:33.932Z,90.38
2022-12-31T21:59:08.750Z,90.29
2022-12-31T22:04:35.316Z,90.20
2022-12-31T22:09:35.329Z,90.06
2022-12-31T22:14:38.465Z,90.12
2022-12-31T22:20:01.093Z,89.98
2022-12-31T22:25:05.847Z,89.81
2022-12-31T22:30:10.758Z,89.60
2022-12-31T22:35:14.510Z,89.54
2022-12-31T22:40:18.236Z,89.35
2022-12-31T22:45:24.003Z,89.39
2022-12-31T22:50:27.728Z,89.23
2022-12-31T22:55:33.901Z,88.96
2022-12-31T23:00:42.021Z,88.82
2022-12-31T23:05:51.496Z,88.68
2022-12-31T23:11:01.388Z,88.46
2022-12-31T23:16:24.841Z,88.10
2022-12-31T23:21:47.196Z,88.10
2022-12-31T23:26:51.215Z,87.51
2022-12-31T23:31:54.752Z,87.30
2022-12-31T23:36:58.245Z,87.47
2022-12-31T23:42:02.377Z,87.23
2022-12-31T23:47:06.282Z,87.12
2022-12-31T23:52:09.613Z,86.56
2022-12-31T23:57:12.937Z,86.54
